Time;durP1;ratioP1;P1;durP2;ratioP2;P2;SDS_P1;SDS_P2;PMS_P1;PMS_P2;Temp;Humidity;BMP_temperature;BMP_pressure;BME280_temperature;BME280_humidity;BME280_pressure;Samples;Min_cycle;Max_cycle;Signal;HPM_P1;HPM_P2
2023/09/21 00:01:06;;;;;;;7.10;1.80;;;18.30;95.20;;;;;;5021646;28;21365;-85
2023/09/21 00:03:36;;;;;;;5.43;2.05;;;18.40;95.20;;;;;;5036540;28;20040;-79
2023/09/21 00:06:04;;;;;;;7.13;2.13;;;18.40;95.10;;;;;;5018679;28;20499;-80
2023/09/21 00:08:30;;;;;;;6.03;2.30;;;18.40;95.10;;;;;;5040476;28;20056;-81
2023/09/21 00:10:58;;;;;;;4.55;1.70;;;18.30;95.00;;;;;;5002884;28;20082;-77
2023/09/21 00:13:26;;;;;;;4.10;1.77;;;18.30;95.00;;;;;;5028718;28;20048;-79
2023/09/21 00:15:56;;;;;;;3.70;2.00;;;18.30;95.00;;;;;;5022236;28;20045;-87
2023/09/21 00:18:23;;;;;;;4.38;2.17;;;18.40;95.00;;;;;;5037028;28;20053;-81
2023/09/21 00:20:56;;;;;;;4.50;2.20;;;18.40;95.00;;;;;;5019198;28;20139;-83
2023/09/21 00:23:23;;;;;;;5.13;2.10;;;18.30;95.00;;;;;;5025636;28;20046;-82
2023/09/21 00:25:50;;;;;;;5.47;2.17;;;18.30;95.00;;;;;;5040287;28;20047;-83
2023/09/21 00:28:19;;;;;;;5.35;2.03;;;18.10;95.00;;;;;;5017475;28;20127;-82
2023/09/21 00:30:46;;;;;;;6.15;2.30;;;18.30;95.20;;;;;;5054073;28;20044;-82
2023/09/21 00:33:11;;;;;;;4.15;2.05;;;18.30;95.30;;;;;;5039106;28;20049;-84
2023/09/21 00:35:40;;;;;;;4.47;1.92;;;18.30;95.40;;;;;;5032159;28;20792;-83
2023/09/21 00:38:10;;;;;;;4.28;2.22;;;18.20;95.50;;;;;;5018941;28;20048;-80
2023/09/21 00:40:40;;;;;;;3.78;2.03;;;18.20;95.60;;;;;;4982455;28;20060;-84
2023/09/21 00:43:12;;;;;;;4.10;2.30;;;18.20;95.70;;;;;;5024512;28;20086;-84
2023/09/21 00:45:43;;;;;;;5.43;2.53;;;18.20;95.70;;;;;;5042999;28;20577;-81
2023/09/21 00:48:11;;;;;;;5.00;2.13;;;18.20;95.80;;;;;;5023353;28;20044;-80
2023/09/21 00:50:41;;;;;;;5.18;2.20;;;18.10;95.80;;;;;;5034867;28;20048;-82
2023/09/21 00:53:13;;;;;;;4.13;1.95;;;18.10;95.80;;;;;;5019276;28;20045;-82
2023/09/21 00:55:41;;;;;;;4.90;1.90;;;18.10;95.80;;;;;;5037574;28;20846;-84
2023/09/21 00:58:07;;;;;;;3.67;2.05;;;18.10;95.90;;;;;;5016569;28;20538;-78
2023/09/21 01:00:34;;;;;;;4.13;1.88;;;18.10;95.90;;;;;;5031439;28;20147;-79
2023/09/21 01:03:10;;;;;;;4.13;2.40;;;18.00;95.90;;;;;;5022933;28;20051;-79
2023/09/21 01:05:39;;;;;;;2.97;1.77;;;18.00;95.90;;;;;;5034868;28;20411;-80
2023/09/21 01:08:10;;;;;;;4.60;2.08;;;18.00;95.90;;;;;;5036957;28;20491;-81
2023/09/21 01:10:49;;;;;;;3.70;1.70;;;18.00;95.90;;;;;;5038211;28;20752;-84
2023/09/21 01:13:25;;;;;;;8.02;2.15;;;18.10;95.90;;;;;;5038667;28;20064;-81
2023/09/21 01:16:01;;;;;;;4.30;2.35;;;18.10;95.80;;;;;;5001206;28;20044;-83
2023/09/21 01:18:27;;;;;;;4.97;2.33;;;18.00;95.80;;;;;;5039144;28;20131;-82
2023/09/21 01:21:00;;;;;;;6.72;2.08;;;18.00;95.80;;;;;;5022503;28;20048;-83
2023/09/21 01:23:56;;;;;;;5.35;1.90;;;18.10;95.80;;;;;;5033407;28;20482;-82
2023/09/21 01:26:22;;;;;;;4.10;2.00;;;18.10;95.70;;;;;;5016920;28;20550;-82
2023/09/21 01:28:49;;;;;;;6.05;2.05;;;18.10;95.70;;;;;;5038385;28;20048;-82
2023/09/21 01:31:17;;;;;;;3.78;2.25;;;18.20;95.60;;;;;;5022100;28;20045;-82
2023/09/21 01:33:44;;;;;;;5.78;2.08;;;18.20;95.60;;;;;;5050959;28;20055;-82
2023/09/21 01:36:15;;;;;;;3.60;1.77;;;18.20;95.50;;;;;;5042133;28;20135;-83
2023/09/21 01:38:44;;;;;;;4.68;1.70;;;18.30;95.50;;;;;;4987418;28;1541013;-83
2023/09/21 01:41:11;;;;;;;4.40;1.83;;;18.30;95.40;;;;;;5029567;28;21356;-83
2023/09/21 01:43:39;;;;;;;4.25;1.90;;;18.30;95.30;;;;;;5042769;28;20080;-83
2023/09/21 01:46:05;;;;;;;5.65;1.95;;;18.40;95.20;;;;;;5058636;28;20048;-84
2023/09/21 01:48:32;;;;;;;5.22;2.10;;;18.40;95.10;;;;;;5034916;28;20044;-81
2023/09/21 01:50:59;;;;;;;5.63;1.95;;;18.40;95.00;;;;;;5043517;28;20091;-82
2023/09/21 01:53:25;;;;;;;5.00;1.73;;;18.50;94.90;;;;;;5039927;28;20444;-81
2023/09/21 01:55:52;;;;;;;4.85;2.10;;;18.50;94.70;;;;;;5041414;28;20086;-83
2023/09/21 01:58:23;;;;;;;4.22;1.60;;;18.60;94.50;;;;;;5043290;28;20049;-84
2023/09/21 02:00:49;;;;;;;5.20;2.00;;;18.60;94.30;;;;;;5027037;28;20063;-84
2023/09/21 02:03:20;;;;;;;4.30;2.08;;;18.60;94.10;;;;;;5042788;28;20050;-81
2023/09/21 02:05:47;;;;;;;4.88;1.90;;;18.70;93.90;;;;;;5054604;28;20076;-85
2023/09/21 02:08:18;;;;;;;6.47;1.95;;;18.70;93.80;;;;;;5044032;28;20142;-82
2023/09/21 02:10:49;;;;;;;3.28;1.80;;;18.70;93.70;;;;;;5040470;28;20040;-82
2023/09/21 02:13:16;;;;;;;4.45;1.88;;;18.70;93.50;;;;;;5025242;28;20044;-82
2023/09/21 02:15:43;;;;;;;4.75;2.00;;;18.80;93.50;;;;;;5011426;28;20056;-84
2023/09/21 02:18:10;;;;;;;3.15;1.52;;;18.80;93.30;;;;;;5043484;28;20103;-85
2023/09/21 02:20:46;;;;;;;4.38;2.00;;;18.80;93.20;;;;;;5041103;28;20039;-82
2023/09/21 02:23:12;;;;;;;5.45;2.28;;;18.80;93.10;;;;;;5056055;28;20048;-85
2023/09/21 02:25:40;;;;;;;3.40;1.85;;;18.80;93.00;;;;;;5041245;28;20107;-84
2023/09/21 02:28:11;;;;;;;4.97;2.13;;;18.90;92.90;;;;;;5045847;28;20052;-81
2023/09/21 02:30:40;;;;;;;3.33;1.55;;;18.90;92.90;;;;;;5035738;28;20053;-82
2023/09/21 02:33:07;;;;;;;4.60;1.63;;;18.90;92.80;;;;;;5054282;28;20040;-81
2023/09/21 02:35:34;;;;;;;4.40;1.92;;;18.90;92.70;;;;;;5055750;28;20059;-81
2023/09/21 02:38:05;;;;;;;4.13;1.80;;;18.90;92.60;;;;;;5005674;28;21782;-81
2023/09/21 02:40:30;;;;;;;4.78;2.35;;;19.00;92.60;;;;;;5056254;28;20059;-80
2023/09/21 02:42:56;;;;;;;4.97;1.63;;;19.00;92.50;;;;;;5054072;28;20040;-81
2023/09/21 02:45:24;;;;;;;4.80;1.80;;;19.00;92.40;;;;;;5038491;28;20040;-81
2023/09/21 02:47:52;;;;;;;4.20;1.90;;;19.00;92.40;;;;;;5028241;28;20128;-80
2023/09/21 02:50:22;;;;;;;7.53;1.88;;;19.00;92.50;;;;;;5041252;28;20419;-81
2023/09/21 02:52:54;;;;;;;4.35;1.70;;;19.00;92.50;;;;;;5004726;28;20370;-81
2023/09/21 02:55:21;;;;;;;4.43;1.85;;;19.00;92.50;;;;;;5057277;28;20132;-82
2023/09/21 02:57:56;;;;;;;4.07;2.10;;;19.00;92.60;;;;;;5033545;28;20436;-82
2023/09/21 03:00:44;;;;;;;4.90;1.98;;;19.00;92.60;;;;;;5019914;28;20051;-82
2023/09/21 03:03:14;;;;;;;3.67;1.90;;;19.00;92.70;;;;;;5040796;28;20570;-81
2023/09/21 03:05:42;;;;;;;4.70;1.58;;;19.00;92.90;;;;;;5043591;28;20533;-82
2023/09/21 03:08:13;;;;;;;4.43;1.98;;;19.00;92.90;;;;;;5056324;28;20060;-81
2023/09/21 03:10:53;;;;;;;3.20;1.80;;;19.00;93.10;;;;;;5025969;28;20403;-82
2023/09/21 03:13:21;;;;;;;3.10;1.70;;;18.90;93.20;;;;;;5019104;28;20045;-82
2023/09/21 03:15:50;;;;;;;4.10;1.90;;;18.90;93.40;;;;;;5037783;28;20086;-81
2023/09/21 03:18:16;;;;;;;5.03;2.20;;;18.90;93.50;;;;;;5019314;28;20051;-82
2023/09/21 03:20:43;;;;;;;4.28;2.00;;;18.90;93.80;;;;;;5040147;28;20511;-81
2023/09/21 03:23:12;;;;;;;3.83;2.03;;;18.90;94.20;;;;;;5022603;28;20321;-81
2023/09/21 03:25:42;;;;;;;3.10;1.80;;;18.90;94.60;;;;;;5041833;28;20056;-84
2023/09/21 03:28:12;;;;;;;3.97;1.88;;;18.80;95.10;;;;;;5024576;28;20616;-79
2023/09/21 03:30:45;;;;;;;3.67;2.00;;;18.80;95.50;;;;;;5051979;28;20554;-80
2023/09/21 03:33:12;;;;;;;4.00;1.98;;;18.70;95.90;;;;;;5041712;28;20380;-79
2023/09/21 03:35:38;;;;;;;3.53;2.13;;;18.60;96.20;;;;;;5036446;28;20139;-78
2023/09/21 03:38:06;;;;;;;6.30;2.53;;;18.60;96.40;;;;;;5038328;28;20055;-82
2023/09/21 03:40:35;;;;;;;3.85;2.20;;;18.60;96.70;;;;;;5015525;28;20079;-83
2023/09/21 03:43:01;;;;;;;5.10;2.08;;;18.60;96.90;;;;;;5039022;28;20157;-81
2023/09/21 03:45:27;;;;;;;3.78;1.90;;;18.50;97.10;;;;;;5036296;28;20127;-81
2023/09/21 03:47:54;;;;;;;4.63;1.90;;;18.50;97.20;;;;;;5038590;28;20453;-81
2023/09/21 03:50:20;;;;;;;4.30;1.77;;;18.50;97.40;;;;;;5035075;28;20241;-84
2023/09/21 03:52:47;;;;;;;3.50;1.95;;;18.50;97.60;;;;;;5052558;28;20048;-82
2023/09/21 03:55:16;;;;;;;4.20;1.67;;;18.40;97.90;;;;;;5006218;28;20048;-84
2023/09/21 03:57:46;;;;;;;2.47;1.35;;;18.40;98.30;;;;;;5032674;28;20689;-78
2023/09/21 04:00:36;;;;;;;3.65;1.13;;;18.30;98.50;;;;;;5015352;28;20050;-82
2023/09/21 04:03:08;;;;;;;2.28;1.17;;;18.30;99.00;;;;;;5019886;28;20052;-84
2023/09/21 04:05:39;;;;;;;3.22;1.40;;;18.20;99.10;;;;;;5023856;28;20039;-82
2023/09/21 04:08:05;;;;;;;3.58;1.63;;;18.20;99.40;;;;;;5003505;28;20074;-79
2023/09/21 04:10:31;;;;;;;2.90;1.42;;;18.10;99.70;;;;;;5032510;28;20415;-80
2023/09/21 04:12:58;;;;;;;3.78;1.60;;;18.10;99.90;;;;;;5032258;28;20048;-80
2023/09/21 04:15:25;;;;;;;3.17;1.70;;;18.10;99.90;;;;;;5033660;28;20052;-81
2023/09/21 04:17:51;;;;;;;3.47;1.63;;;18.00;99.90;;;;;;5039934;28;20160;-79
2023/09/21 04:20:18;;;;;;;2.28;1.30;;;18.00;99.90;;;;;;5015161;28;20043;-80
2023/09/21 04:22:46;;;;;;;2.60;1.50;;;17.90;99.90;;;;;;5020924;28;20091;-80
2023/09/21 04:25:16;;;;;;;4.53;1.50;;;17.90;99.90;;;;;;5021248;28;20063;-79
2023/09/21 04:27:44;;;;;;;4.03;1.83;;;17.90;99.90;;;;;;5019333;28;20052;-79
2023/09/21 04:30:14;;;;;;;2.35;1.55;;;17.90;99.90;;;;;;5032389;28;20047;-80
2023/09/21 04:32:46;;;;;;;5.53;1.95;;;17.90;99.90;;;;;;5033632;28;20476;-80
2023/09/21 04:35:13;;;;;;;3.83;1.80;;;17.80;99.90;;;;;;5035904;28;20491;-80
2023/09/21 04:37:39;;;;;;;3.95;1.70;;;17.80;99.90;;;;;;5041710;28;20056;-81
2023/09/21 04:40:10;;;;;;;2.65;1.73;;;17.80;99.90;;;;;;5034778;28;20360;-81
2023/09/21 04:42:45;;;;;;;3.78;1.90;;;17.80;99.90;;;;;;5046512;28;20071;-81
2023/09/21 04:45:12;;;;;;;3.23;1.90;;;17.80;99.90;;;;;;5040116;28;21021;-81
2023/09/21 04:47:39;;;;;;;3.13;1.90;;;17.70;99.90;;;;;;5042812;28;20582;-81
2023/09/21 04:50:05;;;;;;;4.13;2.05;;;17.70;99.90;;;;;;5034251;28;20449;-81
2023/09/21 04:52:34;;;;;;;3.35;2.00;;;17.70;99.90;;;;;;5052737;28;20333;-81
2023/09/21 04:55:04;;;;;;;3.85;2.30;;;17.70;99.90;;;;;;5039181;28;20140;-81
2023/09/21 04:57:30;;;;;;;3.55;2.10;;;17.60;99.90;;;;;;5036700;28;20043;-81
2023/09/21 05:00:00;;;;;;;5.90;2.15;;;17.60;99.90;;;;;;5034184;28;20542;-81
2023/09/21 05:02:26;;;;;;;3.55;2.03;;;17.60;99.90;;;;;;5036298;28;20048;-80
2023/09/21 05:04:53;;;;;;;5.22;2.08;;;17.60;99.90;;;;;;5042412;28;20044;-81
2023/09/21 05:07:19;;;;;;;4.47;2.13;;;17.60;99.90;;;;;;5033743;28;20048;-80
2023/09/21 05:09:45;;;;;;;3.85;1.90;;;17.60;99.90;;;;;;5036489;28;20044;-80
2023/09/21 05:12:13;;;;;;;5.10;2.22;;;17.60;99.90;;;;;;5036201;28;20399;-79
2023/09/21 05:14:39;;;;;;;4.28;2.13;;;17.60;99.90;;;;;;5037416;28;20055;-78
2023/09/21 05:17:05;;;;;;;6.30;2.25;;;17.60;99.90;;;;;;5021468;28;20052;-78
2023/09/21 05:19:34;;;;;;;5.53;2.33;;;17.70;99.90;;;;;;5017706;28;20800;-79
2023/09/21 05:22:02;;;;;;;5.95;2.55;;;17.70;99.90;;;;;;5033326;28;20079;-78
2023/09/21 05:24:28;;;;;;;4.97;2.88;;;17.60;99.90;;;;;;5040104;28;20220;-78
2023/09/21 05:26:54;;;;;;;3.85;2.20;;;17.60;99.90;;;;;;5018464;28;20051;-79
2023/09/21 05:29:23;;;;;;;5.82;2.67;;;17.60;99.90;;;;;;5054293;28;20570;-79
2023/09/21 05:31:50;;;;;;;5.55;2.08;;;17.60;99.90;;;;;;5019861;28;20074;-78
2023/09/21 05:34:19;;;;;;;5.35;2.38;;;17.60;99.90;;;;;;5038221;28;20052;-78
2023/09/21 05:36:46;;;;;;;3.38;2.30;;;17.50;99.90;;;;;;5022489;28;20044;-78
2023/09/21 05:39:19;;;;;;;3.60;2.13;;;17.50;99.90;;;;;;5034179;28;20586;-80
2023/09/21 05:41:48;;;;;;;4.28;2.42;;;17.50;99.90;;;;;;5037665;28;20051;-79
2023/09/21 05:44:15;;;;;;;4.85;1.90;;;17.50;99.90;;;;;;5040230;28;20052;-78
2023/09/21 05:46:42;;;;;;;3.33;1.90;;;17.50;99.90;;;;;;5024692;28;20101;-78
2023/09/21 05:49:09;;;;;;;7.57;2.60;;;17.50;99.90;;;;;;5001369;28;20052;-82
2023/09/21 05:51:39;;;;;;;3.75;1.88;;;17.50;99.90;;;;;;5045910;28;20048;-78
2023/09/21 05:54:05;;;;;;;7.07;2.60;;;17.50;99.90;;;;;;5040800;28;20041;-80
2023/09/21 05:56:32;;;;;;;5.75;2.40;;;17.40;99.90;;;;;;5020912;28;20437;-81
2023/09/21 05:59:00;;;;;;;4.50;2.28;;;17.50;99.90;;;;;;5004560;28;20048;-79
2023/09/21 06:01:31;;;;;;;6.15;2.50;;;17.40;99.90;;;;;;5033598;28;20072;-80
2023/09/21 06:03:59;;;;;;;10.00;1.70;;;17.40;99.90;;;;;;5032586;28;20041;-80
2023/09/21 06:06:28;;;;;;;9.07;2.00;;;17.30;99.90;;;;;;5018740;28;20067;-80
2023/09/21 06:08:59;;;;;;;10.63;2.03;;;17.10;99.90;;;;;;5029834;28;20076;-80
2023/09/21 06:11:29;;;;;;;10.68;1.98;;;16.90;99.90;;;;;;5022918;28;20045;-82
2023/09/21 06:13:54;;;;;;;12.18;1.95;;;16.80;99.90;;;;;;5046588;28;20491;-81
2023/09/21 06:16:22;;;;;;;9.30;1.20;;;16.70;99.90;;;;;;5037405;28;20044;-81
2023/09/21 06:18:49;;;;;;;6.68;1.60;;;16.60;99.90;;;;;;5052327;28;20522;-81
2023/09/21 06:21:16;;;;;;;5.22;1.17;;;16.50;99.90;;;;;;5011041;28;20045;-81
2023/09/21 06:23:44;;;;;;;7.10;1.30;;;16.40;99.90;;;;;;5054427;28;20120;-80
2023/09/21 06:26:16;;;;;;;6.60;1.48;;;16.40;99.90;;;;;;5054109;28;20049;-81
2023/09/21 06:28:43;;;;;;;5.50;1.30;;;16.40;99.90;;;;;;5049124;28;20044;-80
2023/09/21 06:31:13;;;;;;;5.53;1.30;;;16.30;99.90;;;;;;5013732;28;20123;-79
2023/09/21 06:33:39;;;;;;;7.57;1.48;;;16.30;99.90;;;;;;5024181;28;20384;-80
2023/09/21 06:36:05;;;;;;;4.55;1.17;;;16.20;99.90;;;;;;5047524;28;20487;-79
2023/09/21 06:38:31;;;;;;;4.18;1.13;;;16.20;99.90;;;;;;5067312;28;20124;-79
2023/09/21 06:40:58;;;;;;;4.97;1.20;;;16.20;99.90;;;;;;5034662;28;20506;-80
2023/09/21 06:43:29;;;;;;;6.63;1.33;;;16.20;99.90;;;;;;5037819;28;21085;-80
2023/09/21 06:45:55;;;;;;;3.95;1.17;;;16.20;99.90;;;;;;5051844;28;20056;-81
2023/09/21 06:48:20;;;;;;;4.40;1.13;;;16.20;99.90;;;;;;5021174;28;21395;-79
2023/09/21 06:50:47;;;;;;;9.77;1.83;;;16.20;99.90;;;;;;5044923;28;20044;-78
2023/09/21 06:53:13;;;;;;;6.72;1.15;;;16.20;99.90;;;;;;5052086;28;20037;-77
2023/09/21 06:55:40;;;;;;;5.70;1.40;;;16.20;99.90;;;;;;5050256;28;20055;-79
2023/09/21 06:58:08;;;;;;;7.10;1.40;;;16.20;99.90;;;;;;5043074;28;20090;-78
2023/09/21 07:00:37;;;;;;;7.95;1.77;;;16.20;99.90;;;;;;5070657;28;20534;-79
2023/09/21 07:03:04;;;;;;;8.90;1.60;;;16.20;99.90;;;;;;5027091;28;20047;-79
2023/09/21 07:05:30;;;;;;;6.82;1.50;;;16.30;99.90;;;;;;5018974;28;20494;-79
2023/09/21 07:07:55;;;;;;;5.55;1.40;;;16.30;99.90;;;;;;5047632;28;20049;-79
2023/09/21 07:10:21;;;;;;;6.10;1.20;;;16.30;99.90;;;;;;5051395;28;20544;-79
2023/09/21 07:12:47;;;;;;;4.95;1.33;;;16.30;99.90;;;;;;5036386;28;20042;-78
2023/09/21 07:15:12;;;;;;;6.97;1.38;;;16.20;99.90;;;;;;5051245;28;20092;-79
2023/09/21 07:17:38;;;;;;;10.07;1.42;;;16.20;99.90;;;;;;5049349;28;20098;-78
2023/09/21 07:20:06;;;;;;;7.63;1.48;;;16.20;99.90;;;;;;5049134;28;20060;-79
2023/09/21 07:22:32;;;;;;;6.13;1.40;;;16.20;99.90;;;;;;5046821;28;20100;-79
2023/09/21 07:24:59;;;;;;;9.75;1.52;;;16.20;99.90;;;;;;5066586;28;20052;-78
2023/09/21 07:27:25;;;;;;;9.18;1.85;;;16.20;99.90;;;;;;5051804;28;20438;-79
2023/09/21 07:29:53;;;;;;;7.88;1.75;;;16.20;99.90;;;;;;5048443;28;20106;-79
2023/09/21 07:32:20;;;;;;;8.60;1.52;;;16.20;99.90;;;;;;5039889;28;20048;-79
2023/09/21 07:34:52;;;;;;;7.15;1.50;;;16.20;99.90;;;;;;5031981;28;20052;-78
2023/09/21 07:37:20;;;;;;;4.75;1.30;;;16.10;99.90;;;;;;5024478;28;20098;-78
2023/09/21 07:39:46;;;;;;;5.53;1.38;;;16.00;99.90;;;;;;5011234;28;20045;-79
2023/09/21 07:42:13;;;;;;;5.53;1.17;;;15.90;99.90;;;;;;5023759;28;20047;-79
2023/09/21 07:44:44;;;;;;;4.28;1.10;;;15.80;99.90;;;;;;5030831;28;20582;-78
2023/09/21 07:47:10;;;;;;;3.78;1.38;;;15.80;99.90;;;;;;5047231;28;20052;-79
2023/09/21 07:49:36;;;;;;;5.00;1.40;;;15.80;99.90;;;;;;5046713;28;20559;-79
2023/09/21 07:52:02;;;;;;;4.85;1.23;;;15.80;99.90;;;;;;5030814;28;20066;-79
2023/09/21 07:54:34;;;;;;;4.85;1.27;;;15.80;99.90;;;;;;5034382;28;20127;-79
2023/09/21 07:57:03;;;;;;;8.32;1.70;;;15.80;99.90;;;;;;5046627;28;21034;-79
2023/09/21 07:59:29;;;;;;;2.60;1.25;;;15.80;99.90;;;;;;5020239;28;20049;-79
2023/09/21 08:01:56;;;;;;;5.88;1.55;;;15.80;99.90;;;;;;5044759;28;20110;-77
2023/09/21 08:04:22;;;;;;;7.93;1.45;;;15.80;99.90;;;;;;5028806;28;20458;-79
2023/09/21 08:06:48;;;;;;;6.45;1.10;;;15.80;99.90;;;;;;5062178;28;20079;-79
2023/09/21 08:09:14;;;;;;;4.35;1.40;;;15.80;99.90;;;;;;5046492;28;20124;-78
2023/09/21 08:11:41;;;;;;;6.63;1.35;;;15.90;99.90;;;;;;5029080;28;20042;-78
2023/09/21 08:14:07;;;;;;;6.38;1.52;;;15.90;99.90;;;;;;5046243;28;20048;-77
2023/09/21 08:16:35;;;;;;;3.38;1.55;;;15.90;99.90;;;;;;5033488;28;20046;-79
2023/09/21 08:19:01;;;;;;;4.07;1.55;;;15.90;99.90;;;;;;5036488;28;20377;-77
2023/09/21 08:21:33;;;;;;;6.53;1.40;;;15.90;99.90;;;;;;5032608;28;20057;-77
2023/09/21 08:23:59;;;;;;;4.65;1.42;;;15.90;99.90;;;;;;5073847;28;20047;-79
2023/09/21 08:26:25;;;;;;;5.13;1.30;;;15.90;99.90;;;;;;5047164;28;20043;-79
2023/09/21 08:28:52;;;;;;;5.35;1.50;;;15.90;99.90;;;;;;5054106;28;20040;-79
2023/09/21 08:31:22;;;;;;;3.53;1.20;;;15.90;99.90;;;;;;5054384;28;20489;-79
2023/09/21 08:33:49;;;;;;;5.22;1.20;;;16.00;99.90;;;;;;5039176;28;20447;-79
2023/09/21 08:36:21;;;;;;;2.90;1.10;;;15.90;99.90;;;;;;5055066;28;20523;-79
2023/09/21 08:38:47;;;;;;;3.60;1.33;;;15.90;99.90;;;;;;5021907;28;20052;-79
2023/09/21 08:41:13;;;;;;;3.00;1.30;;;15.80;99.90;;;;;;5045211;28;20091;-79
2023/09/21 08:43:40;;;;;;;3.25;1.17;;;15.80;99.90;;;;;;5044716;28;20090;-78
2023/09/21 08:46:06;;;;;;;3.42;1.23;;;15.80;99.90;;;;;;5053623;28;20123;-78
2023/09/21 08:48:33;;;;;;;4.50;1.35;;;15.80;99.90;;;;;;5054414;28;20114;-79
2023/09/21 08:51:00;;;;;;;3.85;1.35;;;15.90;99.90;;;;;;5054213;28;20040;-79
2023/09/21 08:53:27;;;;;;;3.25;1.40;;;15.90;99.90;;;;;;5037069;28;20051;-78
2023/09/21 08:55:56;;;;;;;3.05;1.00;;;15.90;99.90;;;;;;5035771;28;20056;-79
2023/09/21 08:58:23;;;;;;;5.03;1.25;;;16.00;99.90;;;;;;5071467;28;20040;-78
2023/09/21 09:00:54;;;;;;;4.47;1.23;;;16.00;99.90;;;;;;5061279;28;20037;-79
2023/09/21 09:03:21;;;;;;;3.45;1.17;;;16.10;99.90;;;;;;5070265;28;20102;-79
2023/09/21 09:05:48;;;;;;;3.70;1.67;;;16.10;99.90;;;;;;5071626;28;20080;-79
2023/09/21 09:08:20;;;;;;;2.65;1.45;;;16.10;99.90;;;;;;5034269;28;20301;-79
2023/09/21 09:10:45;;;;;;;3.60;1.70;;;16.10;99.90;;;;;;5050850;28;20044;-78
2023/09/21 09:13:11;;;;;;;5.28;1.85;;;16.20;99.90;;;;;;5038361;28;20076;-78
2023/09/21 09:15:38;;;;;;;3.72;1.70;;;16.20;99.90;;;;;;5026573;28;20036;-79
2023/09/21 09:18:09;;;;;;;6.45;2.13;;;16.20;99.90;;;;;;5034782;28;20044;-78
2023/09/21 09:20:39;;;;;;;3.70;1.40;;;16.30;99.90;;;;;;5055387;28;20127;-78
2023/09/21 09:23:10;;;;;;;5.10;1.40;;;16.40;99.90;;;;;;5068125;28;20071;-77
2023/09/21 09:25:40;;;;;;;5.40;1.30;;;16.40;99.90;;;;;;5055942;28;20068;-77
2023/09/21 09:28:09;;;;;;;3.75;1.20;;;16.50;99.90;;;;;;5053031;28;20566;-78
2023/09/21 09:30:36;;;;;;;4.20;1.20;;;16.50;99.90;;;;;;5067583;28;20045;-79
2023/09/21 09:33:03;;;;;;;3.25;1.52;;;16.60;99.90;;;;;;5043015;28;20040;-78
2023/09/21 09:35:32;;;;;;;3.40;1.38;;;16.60;99.90;;;;;;5036594;28;20154;-78
2023/09/21 09:37:58;;;;;;;3.35;1.38;;;16.60;99.90;;;;;;5035625;28;20048;-78
2023/09/21 09:40:25;;;;;;;4.25;1.50;;;16.70;99.90;;;;;;5054442;28;20515;-80
2023/09/21 09:42:52;;;;;;;4.40;1.60;;;16.80;99.90;;;;;;5050007;28;20494;-78
2023/09/21 09:45:25;;;;;;;6.82;1.45;;;16.90;99.90;;;;;;5050442;28;20036;-78
2023/09/21 09:47:56;;;;;;;3.85;1.35;;;17.00;99.90;;;;;;5042880;28;20376;-79
2023/09/21 09:50:27;;;;;;;3.95;1.60;;;17.00;99.90;;;;;;5032933;28;20414;-78
2023/09/21 09:53:05;;;;;;;4.20;1.48;;;17.10;99.90;;;;;;5053702;28;20040;-78
2023/09/21 09:55:33;;;;;;;2.75;1.40;;;17.10;99.90;;;;;;5049683;28;20482;-78
2023/09/21 09:58:03;;;;;;;3.83;1.48;;;17.20;99.90;;;;;;5034793;28;20040;-78
2023/09/21 10:00:30;;;;;;;4.07;1.38;;;17.20;99.90;;;;;;5034234;28;20049;-80
2023/09/21 10:02:57;;;;;;;4.47;1.48;;;17.30;99.90;;;;;;5049263;28;20395;-78
2023/09/21 10:05:25;;;;;;;3.95;1.25;;;17.30;99.90;;;;;;5048916;28;20040;-78
2023/09/21 10:07:53;;;;;;;2.17;0.90;;;17.30;99.90;;;;;;5048768;28;20051;-79
2023/09/21 10:10:21;;;;;;;3.30;1.00;;;17.30;99.90;;;;;;5031147;28;20498;-79
2023/09/21 10:12:52;;;;;;;4.70;1.05;;;17.30;99.90;;;;;;5051048;28;20490;-79
2023/09/21 10:15:22;;;;;;;3.67;1.25;;;17.30;99.90;;;;;;5048120;28;20044;-79
2023/09/21 10:17:50;;;;;;;3.53;1.00;;;17.30;99.90;;;;;;5051962;28;20048;-78
2023/09/21 10:20:25;;;;;;;5.10;1.10;;;17.30;99.90;;;;;;5048525;28;20109;-79
2023/09/21 10:22:52;;;;;;;3.28;1.23;;;17.30;99.90;;;;;;5049768;28;20106;-79
2023/09/21 10:25:45;;;;;;;2.38;1.25;;;17.30;99.90;;;;;;5052234;28;20406;-79
2023/09/21 10:28:28;;;;;;;2.78;1.30;;;17.30;99.90;;;;;;5050614;28;20139;-78
2023/09/21 10:30:54;;;;;;;2.35;1.00;;;17.30;99.90;;;;;;5063196;28;20051;-78
2023/09/21 10:33:22;;;;;;;4.18;1.02;;;17.30;99.90;;;;;;5022857;28;20384;-79
2023/09/21 10:35:51;;;;;;;4.72;1.33;;;17.30;99.90;;;;;;5051613;28;20082;-78
2023/09/21 10:38:18;;;;;;;2.88;1.23;;;17.30;99.90;;;;;;5063081;28;20044;-79
2023/09/21 10:40:44;;;;;;;3.83;1.15;;;17.30;99.90;;;;;;5045963;28;20047;-78
2023/09/21 10:43:38;;;;;;;5.25;1.40;;;17.30;99.90;;;;;;5027004;28;20056;-79
2023/09/21 10:46:17;;;;;;;4.65;1.33;;;17.20;99.90;;;;;;5029515;28;20044;-79
2023/09/21 10:48:49;;;;;;;2.60;1.17;;;17.20;99.90;;;;;;5041046;28;20064;-79
2023/09/21 10:51:15;;;;;;;2.58;1.27;;;17.20;99.90;;;;;;5041197;28;20688;-79
2023/09/21 10:53:42;;;;;;;2.70;1.13;;;17.20;99.90;;;;;;5049649;28;20080;-79
2023/09/21 10:56:07;;;;;;;3.22;0.93;;;17.20;99.90;;;;;;5036503;28;20067;-79
2023/09/21 10:58:37;;;;;;;2.60;1.08;;;17.20;99.90;;;;;;5067794;28;20063;-79
2023/09/21 11:01:05;;;;;;;3.17;1.30;;;17.20;99.90;;;;;;5033717;28;20051;-79
2023/09/21 11:03:35;;;;;;;3.03;1.10;;;17.10;99.90;;;;;;5025786;28;20075;-80
2023/09/21 11:06:01;;;;;;;3.08;1.35;;;17.10;99.90;;;;;;5017235;28;20706;-79
2023/09/21 11:08:27;;;;;;;2.20;0.98;;;17.00;99.90;;;;;;5066655;28;20110;-78
2023/09/21 11:10:54;;;;;;;3.42;1.08;;;17.00;99.90;;;;;;5035949;28;20048;-79
2023/09/21 11:13:19;;;;;;;2.92;1.10;;;17.00;99.90;;;;;;5032480;28;20044;-80
2023/09/21 11:15:47;;;;;;;4.85;1.27;;;16.90;99.90;;;;;;5015468;28;20049;-79
2023/09/21 11:18:14;;;;;;;3.28;1.10;;;16.90;99.90;;;;;;5026816;28;20040;-80
2023/09/21 11:20:41;;;;;;;2.63;1.00;;;17.00;99.90;;;;;;5051802;28;20052;-79
2023/09/21 11:23:07;;;;;;;3.63;1.13;;;17.00;99.90;;;;;;5047705;28;20044;-79
2023/09/21 11:25:33;;;;;;;3.63;1.67;;;17.00;99.90;;;;;;5046646;28;20083;-79
2023/09/21 11:27:59;;;;;;;3.08;1.40;;;17.00;99.90;;;;;;5046502;28;20040;-80
2023/09/21 11:30:25;;;;;;;3.42;1.10;;;17.00;99.90;;;;;;5064760;28;20504;-79
2023/09/21 11:32:54;;;;;;;4.60;1.42;;;16.90;99.90;;;;;;5052084;28;20055;-80
2023/09/21 11:35:23;;;;;;;3.30;1.20;;;16.90;99.90;;;;;;5064840;28;20066;-80
2023/09/21 11:37:50;;;;;;;3.45;1.25;;;16.80;99.90;;;;;;5030234;28;20067;-80
2023/09/21 11:40:21;;;;;;;3.85;1.08;;;16.80;99.90;;;;;;5023452;28;20387;-80
2023/09/21 11:42:47;;;;;;;2.58;1.17;;;16.70;99.90;;;;;;5041335;28;20070;-81
2023/09/21 11:45:17;;;;;;;4.55;1.20;;;16.70;99.90;;;;;;5066088;28;20049;-81
2023/09/21 11:47:58;;;;;;;2.53;1.30;;;16.70;99.90;;;;;;5026799;28;20045;-80
2023/09/21 11:50:30;;;;;;;3.50;1.30;;;16.60;99.90;;;;;;5031536;28;20044;-79
2023/09/21 11:52:56;;;;;;;4.25;1.35;;;16.60;99.90;;;;;;5006224;28;20068;-80
2023/09/21 11:55:25;;;;;;;4.03;1.27;;;16.60;99.90;;;;;;5045652;28;21711;-80
2023/09/21 11:57:51;;;;;;;2.78;1.10;;;16.70;99.90;;;;;;5046603;28;20040;-80
2023/09/21 12:00:27;;;;;;;4.22;1.48;;;16.60;99.90;;;;;;5029377;28;20040;-79
2023/09/21 12:02:59;;;;;;;;;;;16.70;99.90;;;;;;5050542;28;20048;-79
2023/09/21 12:05:26;;;;;;;3.42;1.27;;;16.70;99.90;;;;;;5050069;28;20386;-78
2023/09/21 12:07:52;;;;;;;3.80;1.17;;;16.70;99.90;;;;;;5040517;28;20040;-78
2023/09/21 12:10:18;;;;;;;3.20;1.40;;;16.70;99.90;;;;;;5011652;28;20044;-79
2023/09/21 12:12:46;;;;;;;1.95;1.15;;;16.70;99.90;;;;;;5045808;28;20098;-78
2023/09/21 12:15:12;;;;;;;2.28;1.20;;;16.70;99.90;;;;;;5032016;28;20213;-77
2023/09/21 12:17:38;;;;;;;2.92;1.30;;;16.70;99.90;;;;;;5049615;28;20528;-79
2023/09/21 12:20:16;;;;;;;3.58;1.40;;;16.80;99.90;;;;;;5066431;28;20474;-77
2023/09/21 12:22:42;;;;;;;2.97;1.30;;;16.80;99.90;;;;;;5048560;28;20131;-77
2023/09/21 12:25:08;;;;;;;2.70;1.20;;;16.80;99.90;;;;;;5058529;28;20856;-79
2023/09/21 12:27:35;;;;;;;3.35;1.45;;;16.80;99.90;;;;;;5049871;28;20115;-78
2023/09/21 12:30:01;;;;;;;2.03;1.23;;;16.80;99.90;;;;;;5032081;28;20047;-78
2023/09/21 12:32:28;;;;;;;2.55;1.30;;;16.80;99.90;;;;;;5019259;28;20078;-78
2023/09/21 12:34:54;;;;;;;2.60;1.38;;;16.80;99.90;;;;;;5048725;28;20084;-78
2023/09/21 12:37:21;;;;;;;3.00;1.20;;;16.90;99.90;;;;;;5048373;28;20036;-79
2023/09/21 12:39:47;;;;;;;2.22;1.17;;;16.90;99.90;;;;;;5032918;28;20051;-78
2023/09/21 12:42:14;;;;;;;2.95;1.40;;;16.90;99.90;;;;;;5026866;28;20434;-78
2023/09/21 12:44:40;;;;;;;4.05;1.27;;;16.90;99.90;;;;;;4992798;28;20047;-77
2023/09/21 12:47:09;;;;;;;3.15;1.50;;;16.90;99.90;;;;;;5032511;28;20052;-78
2023/09/21 12:49:35;;;;;;;3.67;1.23;;;16.90;99.90;;;;;;5051636;28;20086;-78
2023/09/21 12:52:01;;;;;;;3.28;1.20;;;16.90;99.90;;;;;;5025152;28;20447;-78
2023/09/21 12:54:27;;;;;;;3.65;1.42;;;17.00;99.90;;;;;;5048444;28;20096;-78